Grandes-Piles, Canada
Current Conditions -  °F | °C
As of 11:00 AM on Wednesday 26 Nov 2014 (Local Time) from CYRQ Reporting Station
Broken Clouds Broken Clouds  
Wind Chill: 27°   Ceiling: 18000
Heat Index: 32°   Visibility: 9mi
Dew Point: 19°   Wind: 5mph
Humidity: 60%   Direction: 360°N
Pressure: 30.24"   Gusts: NA
Location:  46.68°N, 72.72°W
Report Text: CYRQ 261600Z AUTO 36004KT 9SM FEW040 BKN180 00/M07 A3024 RMK PRESFR SLP243
Loading
Personal Weather Stations






























Interactive Weather Map New forecast layout! Learn more

10-Day Weather Forecast

Advertisements
Track Severe Weather on mobile